Huvudsida
METAR-TAF:

METAR-TAF

Flygplatser :

Oljeplattform Norsk Hydro

Oseberg, Norge

latitud: 60-29-29N, longitud: 2-49-32E, höjd: 158 m

Aktuellt väderrapport

Denna rapport gjordes för 1 timme och 4 minuter sedan, klockan 01:50 UTC
Vind 29 kt från nordväst
Temperatur 6°C
Fuktighet 61%
Tryck 1026 hPa
Sikt 10 km eller mer
Få moln på en höjd av 4000 ft

METAR: ENOA 190150Z 32029KT 9999 FEW040 06/M01 Q1026 W///S6

Tid: 03:54 (02:54 UTC)

Väderprognos

Prognos gäller från 19 kl. 00 UTC till 19 kl. 24 UTC
Vind 30 kt från nordväst
Sikt 10 km eller mer
Få moln på en höjd av 2000 ft
Spridda moln på en höjd av 3500 ft
Blir
från 19 kl. 04 UTC till 19 kl. 06 UTC
Vind 20 kt från väst
Blir
från 19 kl. 15 UTC till 19 kl. 17 UTC
Vind 30 kt från väst/sydväst
Temporärt
från 19 kl. 19 UTC till 19 kl. 22 UTC
Brutna moln på en höjd av 1200 ft
regn

TAF: ENOA 1900/1924 32030KT 9999 FEW020 SCT035 BECMG 1904/1906 27020KT BECMG 1915/1917 24030KT TEMPO 1919/1922 RA BKN012

Aktuella väderrapporter och prognoser från 4000 flygplatser (METAR- och TAF-rapporter).

De tillgängliga stationerna syns som gula och röda prickar på kartan.

För musen över prickarna för att se namnen på stationerna.

Klicka sedan för att få väderrapporter och prognoser.

För att ändra kartan: Klicka på de gröna knapparna med ett svart kors på för att zooma in; den gröna knappen med ett streck på för att zooma ut; eller på de gröna pilarna för angränsande kartor.


METAR-TAF: